sensor_id;sensor_type;location;lat;lon;timestamp;P1;durP1;ratioP1;P2;durP2;ratioP2
46863;SDS011;32598;50.204;6.408;2023-02-28T00:01:22;8.93;;;3.13;;
46863;SDS011;32598;50.204;6.408;2023-02-28T00:03:47;8.20;;;2.83;;
46863;SDS011;32598;50.204;6.408;2023-02-28T00:06:12;7.28;;;2.65;;
46863;SDS011;32598;50.204;6.408;2023-02-28T00:08:38;6.90;;;2.30;;
46863;SDS011;32598;50.204;6.408;2023-02-28T00:11:03;9.75;;;3.08;;
46863;SDS011;32598;50.204;6.408;2023-02-28T00:13:29;8.57;;;2.78;;
46863;SDS011;32598;50.204;6.408;2023-02-28T00:16:01;7.90;;;2.78;;
46863;SDS011;32598;50.204;6.408;2023-02-28T00:18:27;6.25;;;2.83;;
46863;SDS011;32598;50.204;6.408;2023-02-28T00:20:52;10.48;;;2.53;;
46863;SDS011;32598;50.204;6.408;2023-02-28T00:23:17;10.20;;;3.03;;
46863;SDS011;32598;50.204;6.408;2023-02-28T00:25:42;7.47;;;2.67;;
46863;SDS011;32598;50.204;6.408;2023-02-28T00:28:07;8.13;;;2.85;;
46863;SDS011;32598;50.204;6.408;2023-02-28T00:30:32;8.45;;;2.85;;
46863;SDS011;32598;50.204;6.408;2023-02-28T00:32:58;7.40;;;3.22;;
46863;SDS011;32598;50.204;6.408;2023-02-28T00:35:24;7.82;;;2.70;;
46863;SDS011;32598;50.204;6.408;2023-02-28T00:37:49;6.68;;;2.50;;
46863;SDS011;32598;50.204;6.408;2023-02-28T00:40:14;8.82;;;3.10;;
46863;SDS011;32598;50.204;6.408;2023-02-28T00:42:40;9.88;;;2.55;;
46863;SDS011;32598;50.204;6.408;2023-02-28T00:45:05;7.50;;;2.60;;
46863;SDS011;32598;50.204;6.408;2023-02-28T00:47:31;6.75;;;2.60;;
46863;SDS011;32598;50.204;6.408;2023-02-28T00:49:56;6.03;;;2.90;;
46863;SDS011;32598;50.204;6.408;2023-02-28T00:52:21;8.40;;;3.22;;
46863;SDS011;32598;50.204;6.408;2023-02-28T00:54:46;8.27;;;3.10;;
46863;SDS011;32598;50.204;6.408;2023-02-28T00:57:11;5.75;;;2.78;;
46863;SDS011;32598;50.204;6.408;2023-02-28T00:59:37;7.63;;;2.60;;
46863;SDS011;32598;50.204;6.408;2023-02-28T01:02:02;6.53;;;2.55;;
46863;SDS011;32598;50.204;6.408;2023-02-28T01:04:27;6.25;;;2.80;;
46863;SDS011;32598;50.204;6.408;2023-02-28T01:06:52;10.20;;;3.33;;
46863;SDS011;32598;50.204;6.408;2023-02-28T01:09:18;9.55;;;3.22;;
46863;SDS011;32598;50.204;6.408;2023-02-28T01:11:43;9.27;;;2.88;;
46863;SDS011;32598;50.204;6.408;2023-02-28T01:14:11;9.75;;;2.83;;
46863;SDS011;32598;50.204;6.408;2023-02-28T01:16:37;8.45;;;3.15;;
46863;SDS011;32598;50.204;6.408;2023-02-28T01:19:02;10.40;;;3.00;;
46863;SDS011;32598;50.204;6.408;2023-02-28T01:21:27;9.40;;;3.33;;
46863;SDS011;32598;50.204;6.408;2023-02-28T01:23:55;7.35;;;3.10;;
46863;SDS011;32598;50.204;6.408;2023-02-28T01:26:21;8.93;;;3.13;;
46863;SDS011;32598;50.204;6.408;2023-02-28T01:28:48;6.90;;;3.50;;
46863;SDS011;32598;50.204;6.408;2023-02-28T01:31:13;9.23;;;3.63;;
46863;SDS011;32598;50.204;6.408;2023-02-28T01:33:39;6.50;;;3.17;;
46863;SDS011;32598;50.204;6.408;2023-02-28T01:36:05;8.75;;;3.03;;
46863;SDS011;32598;50.204;6.408;2023-02-28T01:38:31;9.10;;;3.55;;
46863;SDS011;32598;50.204;6.408;2023-02-28T01:40:56;8.70;;;3.90;;
46863;SDS011;32598;50.204;6.408;2023-02-28T01:43:23;9.40;;;3.15;;
46863;SDS011;32598;50.204;6.408;2023-02-28T01:45:49;7.78;;;3.60;;
46863;SDS011;32598;50.204;6.408;2023-02-28T01:48:14;7.95;;;3.45;;
46863;SDS011;32598;50.204;6.408;2023-02-28T01:50:41;7.25;;;3.50;;
46863;SDS011;32598;50.204;6.408;2023-02-28T01:53:09;7.47;;;3.67;;
46863;SDS011;32598;50.204;6.408;2023-02-28T01:55:35;9.38;;;3.78;;
46863;SDS011;32598;50.204;6.408;2023-02-28T01:58:02;10.23;;;3.22;;
46863;SDS011;32598;50.204;6.408;2023-02-28T02:00:27;9.93;;;3.80;;
46863;SDS011;32598;50.204;6.408;2023-02-28T02:02:54;8.48;;;3.70;;
46863;SDS011;32598;50.204;6.408;2023-02-28T02:05:22;9.65;;;4.78;;
46863;SDS011;32598;50.204;6.408;2023-02-28T02:07:48;6.93;;;3.20;;
46863;SDS011;32598;50.204;6.408;2023-02-28T02:10:15;9.10;;;4.20;;
46863;SDS011;32598;50.204;6.408;2023-02-28T02:17:53;7.50;;;3.58;;
46863;SDS011;32598;50.204;6.408;2023-02-28T02:25:53;8.82;;;4.32;;
46863;SDS011;32598;50.204;6.408;2023-02-28T02:29:06;8.90;;;3.78;;
46863;SDS011;32598;50.204;6.408;2023-02-28T02:36:22;11.00;;;4.88;;
46863;SDS011;32598;50.204;6.408;2023-02-28T02:38:53;8.73;;;4.75;;
46863;SDS011;32598;50.204;6.408;2023-02-28T02:41:28;8.98;;;4.22;;
46863;SDS011;32598;50.204;6.408;2023-02-28T02:48:57;9.82;;;4.75;;
46863;SDS011;32598;50.204;6.408;2023-02-28T02:51:24;10.45;;;4.65;;
46863;SDS011;32598;50.204;6.408;2023-02-28T02:53:51;9.68;;;5.10;;
46863;SDS011;32598;50.204;6.408;2023-02-28T02:56:18;11.85;;;5.68;;
46863;SDS011;32598;50.204;6.408;2023-02-28T02:58:44;11.98;;;5.28;;
46863;SDS011;32598;50.204;6.408;2023-02-28T03:01:12;12.73;;;5.57;;
46863;SDS011;32598;50.204;6.408;2023-02-28T03:03:39;8.55;;;4.95;;
46863;SDS011;32598;50.204;6.408;2023-02-28T03:06:05;10.45;;;4.90;;
46863;SDS011;32598;50.204;6.408;2023-02-28T03:08:33;10.90;;;5.13;;
46863;SDS011;32598;50.204;6.408;2023-02-28T03:10:59;12.70;;;6.30;;
46863;SDS011;32598;50.204;6.408;2023-02-28T03:21:31;11.27;;;5.60;;
46863;SDS011;32598;50.204;6.408;2023-02-28T03:26:33;12.73;;;5.78;;
46863;SDS011;32598;50.204;6.408;2023-02-28T03:29:08;10.32;;;5.97;;
46863;SDS011;32598;50.204;6.408;2023-02-28T03:31:41;11.50;;;5.93;;
46863;SDS011;32598;50.204;6.408;2023-02-28T03:34:10;12.18;;;6.15;;
46863;SDS011;32598;50.204;6.408;2023-02-28T03:36:37;12.73;;;6.63;;
46863;SDS011;32598;50.204;6.408;2023-02-28T03:39:09;11.13;;;6.05;;
46863;SDS011;32598;50.204;6.408;2023-02-28T03:44:07;11.95;;;6.63;;
46863;SDS011;32598;50.204;6.408;2023-02-28T03:46:36;11.70;;;7.13;;
46863;SDS011;32598;50.204;6.408;2023-02-28T03:49:04;12.75;;;6.43;;
46863;SDS011;32598;50.204;6.408;2023-02-28T03:51:31;12.70;;;6.72;;
46863;SDS011;32598;50.204;6.408;2023-02-28T03:53:58;11.85;;;6.07;;
46863;SDS011;32598;50.204;6.408;2023-02-28T03:56:27;11.55;;;6.05;;
46863;SDS011;32598;50.204;6.408;2023-02-28T03:58:58;11.18;;;6.15;;
46863;SDS011;32598;50.204;6.408;2023-02-28T04:01:30;16.10;;;7.05;;
46863;SDS011;32598;50.204;6.408;2023-02-28T04:03:56;10.90;;;6.50;;
46863;SDS011;32598;50.204;6.408;2023-02-28T04:06:22;11.73;;;6.70;;
46863;SDS011;32598;50.204;6.408;2023-02-28T04:08:48;11.70;;;6.43;;
46863;SDS011;32598;50.204;6.408;2023-02-28T04:11:18;12.73;;;6.88;;
46863;SDS011;32598;50.204;6.408;2023-02-28T04:13:44;12.63;;;6.32;;
46863;SDS011;32598;50.204;6.408;2023-02-28T04:16:10;13.50;;;7.25;;
46863;SDS011;32598;50.204;6.408;2023-02-28T04:18:37;14.85;;;7.68;;
46863;SDS011;32598;50.204;6.408;2023-02-28T04:21:02;12.52;;;7.38;;
46863;SDS011;32598;50.204;6.408;2023-02-28T04:23:27;11.18;;;6.60;;
46863;SDS011;32598;50.204;6.408;2023-02-28T04:25:54;14.45;;;7.53;;
46863;SDS011;32598;50.204;6.408;2023-02-28T04:28:19;13.70;;;7.35;;
46863;SDS011;32598;50.204;6.408;2023-02-28T04:30:44;12.80;;;7.22;;
46863;SDS011;32598;50.204;6.408;2023-02-28T04:33:09;12.92;;;7.28;;
46863;SDS011;32598;50.204;6.408;2023-02-28T04:35:35;14.20;;;7.22;;
46863;SDS011;32598;50.204;6.408;2023-02-28T04:38:00;12.80;;;7.03;;
46863;SDS011;32598;50.204;6.408;2023-02-28T04:40:25;13.10;;;7.47;;
46863;SDS011;32598;50.204;6.408;2023-02-28T04:42:50;17.63;;;7.47;;
46863;SDS011;32598;50.204;6.408;2023-02-28T04:45:15;13.07;;;6.93;;
46863;SDS011;32598;50.204;6.408;2023-02-28T04:47:42;13.45;;;6.93;;
46863;SDS011;32598;50.204;6.408;2023-02-28T04:50:07;11.98;;;6.75;;
46863;SDS011;32598;50.204;6.408;2023-02-28T04:52:32;13.98;;;7.60;;
46863;SDS011;32598;50.204;6.408;2023-02-28T04:54:58;18.27;;;7.55;;
46863;SDS011;32598;50.204;6.408;2023-02-28T04:57:23;16.40;;;8.32;;
46863;SDS011;32598;50.204;6.408;2023-02-28T04:59:48;15.50;;;7.43;;
46863;SDS011;32598;50.204;6.408;2023-02-28T05:02:13;19.23;;;8.35;;
46863;SDS011;32598;50.204;6.408;2023-02-28T05:04:38;13.50;;;6.82;;
46863;SDS011;32598;50.204;6.408;2023-02-28T05:07:03;13.23;;;6.93;;
46863;SDS011;32598;50.204;6.408;2023-02-28T05:09:29;13.98;;;7.28;;
46863;SDS011;32598;50.204;6.408;2023-02-28T05:11:54;13.52;;;7.30;;
46863;SDS011;32598;50.204;6.408;2023-02-28T05:14:19;13.25;;;6.88;;
46863;SDS011;32598;50.204;6.408;2023-02-28T05:16:44;13.23;;;7.18;;
46863;SDS011;32598;50.204;6.408;2023-02-28T05:19:09;13.23;;;7.05;;
46863;SDS011;32598;50.204;6.408;2023-02-28T05:24:04;12.10;;;6.50;;
46863;SDS011;32598;50.204;6.408;2023-02-28T05:26:30;16.90;;;7.75;;
46863;SDS011;32598;50.204;6.408;2023-02-28T05:28:55;15.38;;;7.25;;
46863;SDS011;32598;50.204;6.408;2023-02-28T05:31:20;15.25;;;7.75;;
46863;SDS011;32598;50.204;6.408;2023-02-28T05:33:46;15.10;;;7.88;;
46863;SDS011;32598;50.204;6.408;2023-02-28T05:36:11;13.95;;;7.90;;
46863;SDS011;32598;50.204;6.408;2023-02-28T05:38:36;13.98;;;7.63;;
46863;SDS011;32598;50.204;6.408;2023-02-28T05:41:08;12.25;;;7.45;;
46863;SDS011;32598;50.204;6.408;2023-02-28T05:43:34;13.20;;;6.68;;
46863;SDS011;32598;50.204;6.408;2023-02-28T05:46:01;16.73;;;8.52;;
46863;SDS011;32598;50.204;6.408;2023-02-28T05:48:26;14.50;;;8.10;;
46863;SDS011;32598;50.204;6.408;2023-02-28T05:50:51;10.98;;;7.20;;
46863;SDS011;32598;50.204;6.408;2023-02-28T05:53:17;14.63;;;8.30;;
46863;SDS011;32598;50.204;6.408;2023-02-28T05:55:42;15.68;;;7.72;;
46863;SDS011;32598;50.204;6.408;2023-02-28T05:58:07;14.88;;;7.70;;
46863;SDS011;32598;50.204;6.408;2023-02-28T06:00:32;13.90;;;7.10;;
46863;SDS011;32598;50.204;6.408;2023-02-28T06:02:57;11.30;;;6.50;;
46863;SDS011;32598;50.204;6.408;2023-02-28T06:05:26;13.65;;;6.90;;
46863;SDS011;32598;50.204;6.408;2023-02-28T06:07:51;14.57;;;7.22;;
46863;SDS011;32598;50.204;6.408;2023-02-28T06:10:16;14.90;;;7.07;;
46863;SDS011;32598;50.204;6.408;2023-02-28T06:12:42;14.23;;;7.38;;
46863;SDS011;32598;50.204;6.408;2023-02-28T06:15:09;18.10;;;7.63;;
46863;SDS011;32598;50.204;6.408;2023-02-28T06:17:36;14.77;;;7.75;;
46863;SDS011;32598;50.204;6.408;2023-02-28T06:20:01;13.50;;;7.47;;
46863;SDS011;32598;50.204;6.408;2023-02-28T06:22:27;13.50;;;7.13;;
46863;SDS011;32598;50.204;6.408;2023-02-28T06:24:52;14.02;;;7.13;;
46863;SDS011;32598;50.204;6.408;2023-02-28T06:27:19;13.10;;;6.93;;
46863;SDS011;32598;50.204;6.408;2023-02-28T06:29:45;13.63;;;6.88;;
46863;SDS011;32598;50.204;6.408;2023-02-28T06:32:10;11.60;;;7.10;;
46863;SDS011;32598;50.204;6.408;2023-02-28T06:34:35;14.13;;;7.72;;
46863;SDS011;32598;50.204;6.408;2023-02-28T06:37:01;14.50;;;6.78;;
46863;SDS011;32598;50.204;6.408;2023-02-28T06:39:27;15.20;;;7.82;;
46863;SDS011;32598;50.204;6.408;2023-02-28T06:41:52;13.52;;;7.05;;
46863;SDS011;32598;50.204;6.408;2023-02-28T06:44:17;15.77;;;8.65;;
46863;SDS011;32598;50.204;6.408;2023-02-28T06:46:43;20.70;;;8.90;;
46863;SDS011;32598;50.204;6.408;2023-02-28T06:49:09;13.73;;;7.53;;
46863;SDS011;32598;50.204;6.408;2023-02-28T06:51:34;15.20;;;8.18;;
46863;SDS011;32598;50.204;6.408;2023-02-28T06:54:00;11.23;;;7.03;;
46863;SDS011;32598;50.204;6.408;2023-02-28T06:56:25;15.18;;;7.53;;
46863;SDS011;32598;50.204;6.408;2023-02-28T06:58:50;15.52;;;7.60;;
46863;SDS011;32598;50.204;6.408;2023-02-28T07:01:17;15.57;;;7.32;;
46863;SDS011;32598;50.204;6.408;2023-02-28T07:03:43;11.05;;;6.40;;
46863;SDS011;32598;50.204;6.408;2023-02-28T07:06:08;14.07;;;6.78;;
46863;SDS011;32598;50.204;6.408;2023-02-28T07:08:35;12.92;;;7.64;;
46863;SDS011;32598;50.204;6.408;2023-02-28T07:11:05;15.00;;;7.50;;
46863;SDS011;32598;50.204;6.408;2023-02-28T07:13:30;15.63;;;7.78;;
46863;SDS011;32598;50.204;6.408;2023-02-28T07:15:59;12.68;;;6.43;;
46863;SDS011;32598;50.204;6.408;2023-02-28T07:18:24;11.38;;;6.93;;
46863;SDS011;32598;50.204;6.408;2023-02-28T07:20:50;11.85;;;6.45;;
46863;SDS011;32598;50.204;6.408;2023-02-28T07:23:15;14.50;;;7.30;;
46863;SDS011;32598;50.204;6.408;2023-02-28T07:25:41;11.10;;;6.68;;
46863;SDS011;32598;50.204;6.408;2023-02-28T07:28:06;13.57;;;6.47;;
46863;SDS011;32598;50.204;6.408;2023-02-28T07:30:31;13.18;;;5.90;;
46863;SDS011;32598;50.204;6.408;2023-02-28T07:32:56;13.05;;;6.38;;
46863;SDS011;32598;50.204;6.408;2023-02-28T07:35:22;12.05;;;6.85;;
46863;SDS011;32598;50.204;6.408;2023-02-28T07:37:47;10.70;;;6.05;;
46863;SDS011;32598;50.204;6.408;2023-02-28T07:40:12;15.27;;;6.72;;
46863;SDS011;32598;50.204;6.408;2023-02-28T07:42:38;12.43;;;5.97;;
46863;SDS011;32598;50.204;6.408;2023-02-28T07:45:03;10.95;;;5.78;;
46863;SDS011;32598;50.204;6.408;2023-02-28T07:47:29;11.65;;;5.45;;
46863;SDS011;32598;50.204;6.408;2023-02-28T07:49:55;10.93;;;6.57;;
46863;SDS011;32598;50.204;6.408;2023-02-28T07:52:20;8.20;;;4.82;;
46863;SDS011;32598;50.204;6.408;2023-02-28T07:54:45;10.00;;;5.60;;
46863;SDS011;32598;50.204;6.408;2023-02-28T07:57:10;10.88;;;4.85;;
46863;SDS011;32598;50.204;6.408;2023-02-28T07:59:35;11.00;;;5.20;;
46863;SDS011;32598;50.204;6.408;2023-02-28T08:02:00;11.27;;;5.05;;
46863;SDS011;32598;50.204;6.408;2023-02-28T08:04:26;10.20;;;5.72;;
46863;SDS011;32598;50.204;6.408;2023-02-28T08:06:51;11.50;;;5.97;;
46863;SDS011;32598;50.204;6.408;2023-02-28T08:09:18;10.60;;;5.63;;
46863;SDS011;32598;50.204;6.408;2023-02-28T08:11:43;9.10;;;5.07;;
46863;SDS011;32598;50.204;6.408;2023-02-28T08:14:08;9.63;;;4.50;;
46863;SDS011;32598;50.204;6.408;2023-02-28T08:16:33;11.75;;;4.82;;
46863;SDS011;32598;50.204;6.408;2023-02-28T08:18:58;10.35;;;5.28;;
46863;SDS011;32598;50.204;6.408;2023-02-28T08:21:24;11.75;;;5.50;;
46863;SDS011;32598;50.204;6.408;2023-02-28T08:23:49;11.90;;;4.88;;
46863;SDS011;32598;50.204;6.408;2023-02-28T08:26:15;12.38;;;5.70;;
46863;SDS011;32598;50.204;6.408;2023-02-28T08:28:41;9.65;;;5.15;;
46863;SDS011;32598;50.204;6.408;2023-02-28T08:31:07;11.95;;;5.63;;
46863;SDS011;32598;50.204;6.408;2023-02-28T08:33:32;13.00;;;5.05;;
46863;SDS011;32598;50.204;6.408;2023-02-28T08:35:58;9.98;;;5.32;;
46863;SDS011;32598;50.204;6.408;2023-02-28T08:38:23;11.75;;;5.53;;
46863;SDS011;32598;50.204;6.408;2023-02-28T08:40:48;11.48;;;5.80;;
46863;SDS011;32598;50.204;6.408;2023-02-28T08:43:14;12.20;;;5.35;;
46863;SDS011;32598;50.204;6.408;2023-02-28T08:45:39;8.45;;;4.35;;
46863;SDS011;32598;50.204;6.408;2023-02-28T08:48:04;9.82;;;4.82;;
46863;SDS011;32598;50.204;6.408;2023-02-28T08:50:32;10.65;;;4.47;;
46863;SDS011;32598;50.204;6.408;2023-02-28T08:52:58;11.15;;;5.00;;
46863;SDS011;32598;50.204;6.408;2023-02-28T08:55:23;9.25;;;4.68;;
46863;SDS011;32598;50.204;6.408;2023-02-28T08:57:48;10.02;;;5.20;;
46863;SDS011;32598;50.204;6.408;2023-02-28T09:54:55;7.70;;;4.20;;
46863;SDS011;32598;50.204;6.408;2023-02-28T09:59:51;8.15;;;4.18;;
46863;SDS011;32598;50.204;6.408;2023-02-28T10:05:05;6.57;;;3.10;;
46863;SDS011;32598;50.204;6.408;2023-02-28T10:09:59;9.77;;;3.92;;
46863;SDS011;32598;50.204;6.408;2023-02-28T10:12:25;9.68;;;3.17;;
46863;SDS011;32598;50.204;6.408;2023-02-28T10:14:52;6.97;;;2.95;;
46863;SDS011;32598;50.204;6.408;2023-02-28T10:17:23;8.32;;;3.33;;
46863;SDS011;32598;50.204;6.408;2023-02-28T10:19:55;6.38;;;3.20;;
46863;SDS011;32598;50.204;6.408;2023-02-28T10:22:22;8.60;;;2.72;;
46863;SDS011;32598;50.204;6.408;2023-02-28T10:24:50;6.25;;;3.38;;
46863;SDS011;32598;50.204;6.408;2023-02-28T10:27:23;7.53;;;3.38;;
46863;SDS011;32598;50.204;6.408;2023-02-28T10:29:49;7.07;;;3.10;;
46863;SDS011;32598;50.204;6.408;2023-02-28T10:32:16;8.13;;;3.42;;
46863;SDS011;32598;50.204;6.408;2023-02-28T10:34:42;6.65;;;3.20;;
46863;SDS011;32598;50.204;6.408;2023-02-28T10:37:07;9.02;;;3.58;;
46863;SDS011;32598;50.204;6.408;2023-02-28T10:42:01;9.57;;;3.53;;
46863;SDS011;32598;50.204;6.408;2023-02-28T10:44:26;8.68;;;3.80;;
46863;SDS011;32598;50.204;6.408;2023-02-28T10:46:51;8.15;;;4.15;;
46863;SDS011;32598;50.204;6.408;2023-02-28T10:49:24;8.82;;;4.40;;
46863;SDS011;32598;50.204;6.408;2023-02-28T10:51:52;8.15;;;3.78;;
46863;SDS011;32598;50.204;6.408;2023-02-28T10:54:22;11.70;;;3.78;;
46863;SDS011;32598;50.204;6.408;2023-02-28T11:01:56;7.95;;;4.72;;
46863;SDS011;32598;50.204;6.408;2023-02-28T11:06:47;11.68;;;3.95;;
46863;SDS011;32598;50.204;6.408;2023-02-28T11:09:16;10.27;;;4.18;;
46863;SDS011;32598;50.204;6.408;2023-02-28T11:11:43;8.52;;;3.92;;
46863;SDS011;32598;50.204;6.408;2023-02-28T11:14:22;7.88;;;3.97;;
46863;SDS011;32598;50.204;6.408;2023-02-28T11:16:48;8.18;;;4.60;;
46863;SDS011;32598;50.204;6.408;2023-02-28T11:19:17;8.43;;;4.50;;
46863;SDS011;32598;50.204;6.408;2023-02-28T11:21:46;9.32;;;4.45;;
46863;SDS011;32598;50.204;6.408;2023-02-28T11:26:42;8.55;;;4.65;;
46863;SDS011;32598;50.204;6.408;2023-02-28T11:29:12;10.13;;;4.40;;
46863;SDS011;32598;50.204;6.408;2023-02-28T11:31:41;9.57;;;4.40;;
46863;SDS011;32598;50.204;6.408;2023-02-28T11:34:25;9.23;;;4.50;;
46863;SDS011;32598;50.204;6.408;2023-02-28T11:36:50;9.15;;;4.40;;
46863;SDS011;32598;50.204;6.408;2023-02-28T11:39:16;9.65;;;4.28;;
46863;SDS011;32598;50.204;6.408;2023-02-28T11:44:32;8.82;;;4.40;;
46863;SDS011;32598;50.204;6.408;2023-02-28T11:47:09;9.45;;;4.85;;
46863;SDS011;32598;50.204;6.408;2023-02-28T11:49:48;8.10;;;4.57;;
46863;SDS011;32598;50.204;6.408;2023-02-28T11:54:49;7.88;;;4.57;;
46863;SDS011;32598;50.204;6.408;2023-02-28T12:07:31;9.77;;;4.97;;
46863;SDS011;32598;50.204;6.408;2023-02-28T12:10:33;7.80;;;4.53;;
46863;SDS011;32598;50.204;6.408;2023-02-28T12:12:54;8.32;;;4.43;;
46863;SDS011;32598;50.204;6.408;2023-02-28T12:18:39;10.65;;;5.47;;
46863;SDS011;32598;50.204;6.408;2023-02-28T12:28:51;11.27;;;4.88;;
46863;SDS011;32598;50.204;6.408;2023-02-28T12:31:20;9.93;;;4.85;;
46863;SDS011;32598;50.204;6.408;2023-02-28T12:33:51;10.40;;;5.50;;
46863;SDS011;32598;50.204;6.408;2023-02-28T12:36:18;10.52;;;5.50;;
46863;SDS011;32598;50.204;6.408;2023-02-28T12:38:47;11.07;;;4.80;;
46863;SDS011;32598;50.204;6.408;2023-02-28T12:41:17;9.38;;;4.85;;
46863;SDS011;32598;50.204;6.408;2023-02-28T12:43:44;13.48;;;4.93;;
46863;SDS011;32598;50.204;6.408;2023-02-28T12:46:13;10.63;;;5.45;;
46863;SDS011;32598;50.204;6.408;2023-02-28T12:48:58;10.07;;;5.43;;
46863;SDS011;32598;50.204;6.408;2023-02-28T12:51:25;8.82;;;5.00;;
46863;SDS011;32598;50.204;6.408;2023-02-28T12:56:30;9.93;;;5.38;;
46863;SDS011;32598;50.204;6.408;2023-02-28T12:59:10;9.82;;;4.50;;
46863;SDS011;32598;50.204;6.408;2023-02-28T13:02:00;9.73;;;4.80;;
46863;SDS011;32598;50.204;6.408;2023-02-28T13:04:28;7.75;;;4.65;;
46863;SDS011;32598;50.204;6.408;2023-02-28T13:09:22;8.77;;;4.87;;
46863;SDS011;32598;50.204;6.408;2023-02-28T13:11:48;10.32;;;4.60;;
46863;SDS011;32598;50.204;6.408;2023-02-28T13:14:24;8.35;;;4.57;;
46863;SDS011;32598;50.204;6.408;2023-02-28T13:16:56;10.25;;;4.68;;
46863;SDS011;32598;50.204;6.408;2023-02-28T13:19:23;8.85;;;4.18;;
46863;SDS011;32598;50.204;6.408;2023-02-28T13:21:50;8.90;;;4.75;;
46863;SDS011;32598;50.204;6.408;2023-02-28T13:29:42;8.45;;;4.60;;
46863;SDS011;32598;50.204;6.408;2023-02-28T13:34:35;13.43;;;4.65;;
46863;SDS011;32598;50.204;6.408;2023-02-28T13:39:46;8.18;;;4.55;;
46863;SDS011;32598;50.204;6.408;2023-02-28T13:42:57;10.65;;;4.80;;
46863;SDS011;32598;50.204;6.408;2023-02-28T13:47:28;9.00;;;4.68;;
46863;SDS011;32598;50.204;6.408;2023-02-28T13:49:53;9.65;;;4.53;;
46863;SDS011;32598;50.204;6.408;2023-02-28T13:52:20;8.85;;;5.00;;
46863;SDS011;32598;50.204;6.408;2023-02-28T14:05:14;8.07;;;4.38;;
46863;SDS011;32598;50.204;6.408;2023-02-28T14:07:43;8.05;;;4.82;;
46863;SDS011;32598;50.204;6.408;2023-02-28T14:10:15;7.80;;;4.35;;
46863;SDS011;32598;50.204;6.408;2023-02-28T14:15:41;8.80;;;5.00;;
46863;SDS011;32598;50.204;6.408;2023-02-28T14:23:35;8.90;;;4.75;;
46863;SDS011;32598;50.204;6.408;2023-02-28T14:26:11;8.18;;;4.65;;
46863;SDS011;32598;50.204;6.408;2023-02-28T14:31:06;9.18;;;5.00;;
46863;SDS011;32598;50.204;6.408;2023-02-28T14:36:33;9.98;;;5.50;;
46863;SDS011;32598;50.204;6.408;2023-02-28T14:41:33;9.18;;;4.60;;
46863;SDS011;32598;50.204;6.408;2023-02-28T14:44:03;12.00;;;5.63;;
46863;SDS011;32598;50.204;6.408;2023-02-28T14:46:38;11.63;;;6.10;;
46863;SDS011;32598;50.204;6.408;2023-02-28T14:49:04;10.70;;;4.53;;
46863;SDS011;32598;50.204;6.408;2023-02-28T14:51:31;10.38;;;5.25;;
46863;SDS011;32598;50.204;6.408;2023-02-28T14:53:58;9.13;;;5.25;;
46863;SDS011;32598;50.204;6.408;2023-02-28T14:56:26;10.07;;;5.13;;
46863;SDS011;32598;50.204;6.408;2023-02-28T14:58:52;13.65;;;4.80;;
46863;SDS011;32598;50.204;6.408;2023-02-28T15:01:19;8.10;;;4.60;;
46863;SDS011;32598;50.204;6.408;2023-02-28T15:03:44;8.93;;;5.03;;
46863;SDS011;32598;50.204;6.408;2023-02-28T15:06:17;9.77;;;4.60;;
46863;SDS011;32598;50.204;6.408;2023-02-28T15:08:43;8.82;;;5.22;;
46863;SDS011;32598;50.204;6.408;2023-02-28T15:11:09;12.40;;;4.95;;
46863;SDS011;32598;50.204;6.408;2023-02-28T15:13:44;8.82;;;5.10;;
46863;SDS011;32598;50.204;6.408;2023-02-28T15:16:12;9.50;;;5.28;;
46863;SDS011;32598;50.204;6.408;2023-02-28T15:18:42;10.55;;;5.60;;
46863;SDS011;32598;50.204;6.408;2023-02-28T15:21:16;11.77;;;4.90;;
46863;SDS011;32598;50.204;6.408;2023-02-28T15:23:44;11.70;;;5.55;;
46863;SDS011;32598;50.204;6.408;2023-02-28T15:26:12;8.68;;;4.60;;
46863;SDS011;32598;50.204;6.408;2023-02-28T15:28:39;8.73;;;4.75;;
46863;SDS011;32598;50.204;6.408;2023-02-28T15:31:04;8.57;;;4.63;;
46863;SDS011;32598;50.204;6.408;2023-02-28T15:33:51;9.50;;;4.20;;
46863;SDS011;32598;50.204;6.408;2023-02-28T15:36:17;9.60;;;5.13;;
46863;SDS011;32598;50.204;6.408;2023-02-28T15:38:46;10.18;;;4.22;;
46863;SDS011;32598;50.204;6.408;2023-02-28T15:41:25;10.05;;;4.75;;
46863;SDS011;32598;50.204;6.408;2023-02-28T15:44:13;9.75;;;4.82;;
46863;SDS011;32598;50.204;6.408;2023-02-28T15:46:36;9.85;;;4.50;;
46863;SDS011;32598;50.204;6.408;2023-02-28T15:49:01;10.60;;;5.40;;
46863;SDS011;32598;50.204;6.408;2023-02-28T15:51:32;8.05;;;4.63;;
46863;SDS011;32598;50.204;6.408;2023-02-28T15:56:24;12.40;;;5.90;;
46863;SDS011;32598;50.204;6.408;2023-02-28T15:58:50;9.35;;;4.60;;
46863;SDS011;32598;50.204;6.408;2023-02-28T16:01:20;9.80;;;5.68;;
46863;SDS011;32598;50.204;6.408;2023-02-28T16:03:50;10.23;;;5.35;;
46863;SDS011;32598;50.204;6.408;2023-02-28T16:06:22;10.00;;;5.70;;
46863;SDS011;32598;50.204;6.408;2023-02-28T16:08:48;9.60;;;5.00;;
46863;SDS011;32598;50.204;6.408;2023-02-28T16:11:16;13.32;;;5.97;;
46863;SDS011;32598;50.204;6.408;2023-02-28T16:13:41;12.20;;;5.43;;
46863;SDS011;32598;50.204;6.408;2023-02-28T16:16:06;8.90;;;5.50;;
46863;SDS011;32598;50.204;6.408;2023-02-28T16:18:32;9.90;;;5.78;;
46863;SDS011;32598;50.204;6.408;2023-02-28T16:20:57;11.40;;;6.18;;
46863;SDS011;32598;50.204;6.408;2023-02-28T16:23:22;12.05;;;4.90;;
46863;SDS011;32598;50.204;6.408;2023-02-28T16:25:47;11.65;;;5.90;;
46863;SDS011;32598;50.204;6.408;2023-02-28T16:28:34;9.20;;;5.20;;
46863;SDS011;32598;50.204;6.408;2023-02-28T16:31:01;11.25;;;5.22;;
46863;SDS011;32598;50.204;6.408;2023-02-28T16:33:30;12.27;;;5.45;;
46863;SDS011;32598;50.204;6.408;2023-02-28T16:35:55;11.02;;;5.60;;
46863;SDS011;32598;50.204;6.408;2023-02-28T16:38:21;13.05;;;5.95;;
46863;SDS011;32598;50.204;6.408;2023-02-28T16:40:48;10.95;;;6.28;;
46863;SDS011;32598;50.204;6.408;2023-02-28T16:43:17;11.45;;;6.35;;
46863;SDS011;32598;50.204;6.408;2023-02-28T16:45:43;13.25;;;6.47;;
46863;SDS011;32598;50.204;6.408;2023-02-28T16:48:13;11.95;;;5.75;;
46863;SDS011;32598;50.204;6.408;2023-02-28T16:50:38;13.20;;;6.95;;
46863;SDS011;32598;50.204;6.408;2023-02-28T16:53:04;11.73;;;6.82;;
46863;SDS011;32598;50.204;6.408;2023-02-28T16:55:29;13.98;;;6.47;;
46863;SDS011;32598;50.204;6.408;2023-02-28T16:57:55;13.02;;;6.20;;
46863;SDS011;32598;50.204;6.408;2023-02-28T17:00:21;11.93;;;5.95;;
46863;SDS011;32598;50.204;6.408;2023-02-28T17:02:46;11.00;;;6.18;;
46863;SDS011;32598;50.204;6.408;2023-02-28T17:05:11;11.35;;;6.55;;
46863;SDS011;32598;50.204;6.408;2023-02-28T17:07:36;16.90;;;7.75;;
46863;SDS011;32598;50.204;6.408;2023-02-28T17:10:02;13.60;;;7.68;;
46863;SDS011;32598;50.204;6.408;2023-02-28T17:12:33;13.15;;;6.65;;
46863;SDS011;32598;50.204;6.408;2023-02-28T17:14:58;13.80;;;7.15;;
46863;SDS011;32598;50.204;6.408;2023-02-28T17:17:23;17.85;;;8.70;;
46863;SDS011;32598;50.204;6.408;2023-02-28T17:19:49;15.80;;;7.55;;
46863;SDS011;32598;50.204;6.408;2023-02-28T17:22:14;13.70;;;6.82;;
46863;SDS011;32598;50.204;6.408;2023-02-28T17:24:40;15.00;;;7.68;;
46863;SDS011;32598;50.204;6.408;2023-02-28T17:27:05;13.35;;;7.68;;
46863;SDS011;32598;50.204;6.408;2023-02-28T17:29:32;15.88;;;9.98;;
46863;SDS011;32598;50.204;6.408;2023-02-28T17:31:57;16.15;;;8.13;;
46863;SDS011;32598;50.204;6.408;2023-02-28T17:34:22;17.42;;;7.60;;
46863;SDS011;32598;50.204;6.408;2023-02-28T17:36:48;15.43;;;8.52;;
46863;SDS011;32598;50.204;6.408;2023-02-28T17:39:14;16.95;;;7.57;;
46863;SDS011;32598;50.204;6.408;2023-02-28T17:41:40;14.00;;;7.63;;
46863;SDS011;32598;50.204;6.408;2023-02-28T17:44:06;14.50;;;7.60;;
46863;SDS011;32598;50.204;6.408;2023-02-28T17:46:31;17.15;;;8.93;;